Time;durP1;ratioP1;P1;durP2;ratioP2;P2;SDS_P1;SDS_P2;PMS_P1;PMS_P2;Temp;Humidity;BMP_temperature;BMP_pressure;BME280_temperature;BME280_humidity;BME280_pressure;Samples;Min_cycle;Max_cycle;Signal;HPM_P1;HPM_P2
2023/09/19 00:00:27;;;;;;;10.68;9.93;;;15.10;99.90;;;;;;5041887;28;20152;-79
2023/09/19 00:03:00;;;;;;;10.32;9.57;;;15.10;99.90;;;;;;4964420;28;20135;-78
2023/09/19 00:05:29;;;;;;;10.82;9.90;;;15.10;99.90;;;;;;4975653;28;20171;-79
2023/09/19 00:08:00;;;;;;;10.82;10.02;;;15.10;99.90;;;;;;4973859;28;20050;-79
2023/09/19 00:10:31;;;;;;;11.23;10.07;;;15.10;99.90;;;;;;5031675;28;20061;-80
2023/09/19 00:12:59;;;;;;;11.00;10.05;;;15.10;99.90;;;;;;4979874;28;20046;-81
2023/09/19 00:15:29;;;;;;;11.50;10.48;;;15.20;99.90;;;;;;4976633;28;20054;-78
2023/09/19 00:17:56;;;;;;;13.05;11.68;;;15.10;99.90;;;;;;5029468;28;20049;-79
2023/09/19 00:20:24;;;;;;;12.25;11.38;;;15.10;99.90;;;;;;4951038;28;20070;-78
2023/09/19 00:22:54;;;;;;;12.38;11.02;;;15.00;99.90;;;;;;4987055;28;20138;-79
2023/09/19 00:25:21;;;;;;;13.60;10.98;;;15.00;99.90;;;;;;4974483;28;20079;-78
2023/09/19 00:27:51;;;;;;;13.32;11.82;;;14.90;99.90;;;;;;4983350;28;20057;-79
2023/09/19 00:30:21;;;;;;;12.27;11.13;;;14.90;99.90;;;;;;4973803;28;20495;-79
2023/09/19 00:32:48;;;;;;;12.90;11.32;;;14.90;99.90;;;;;;4986833;28;20619;-78
2023/09/19 00:35:15;;;;;;;12.73;11.68;;;14.90;99.90;;;;;;4984959;28;20408;-78
2023/09/19 00:37:42;;;;;;;12.25;11.13;;;14.90;99.90;;;;;;4986974;28;20046;-78
2023/09/19 00:40:12;;;;;;;13.45;12.15;;;14.80;99.90;;;;;;4953513;28;20051;-79
2023/09/19 00:42:40;;;;;;;13.32;12.05;;;14.80;99.90;;;;;;4972901;28;20066;-79
2023/09/19 00:45:13;;;;;;;13.30;12.15;;;14.80;99.90;;;;;;4958845;28;20042;-81
2023/09/19 00:47:42;;;;;;;13.05;11.95;;;14.80;99.90;;;;;;4983065;28;20051;-79
2023/09/19 00:50:10;;;;;;;14.15;12.95;;;14.80;99.90;;;;;;4974407;28;20495;-78
2023/09/19 00:52:39;;;;;;;13.88;12.70;;;14.80;99.90;;;;;;4943452;28;20062;-80
2023/09/19 00:55:07;;;;;;;13.40;11.85;;;14.80;99.90;;;;;;4956635;28;20058;-79
2023/09/19 00:57:36;;;;;;;13.73;12.38;;;14.70;99.90;;;;;;5003119;28;20496;-80
2023/09/19 01:00:05;;;;;;;13.98;12.50;;;14.70;99.90;;;;;;4959223;28;20046;-80
2023/09/19 01:02:34;;;;;;;13.70;12.55;;;14.70;99.90;;;;;;4963348;28;20111;-80
2023/09/19 01:05:04;;;;;;;13.90;12.80;;;14.70;99.90;;;;;;4987128;28;20537;-81
2023/09/19 01:07:33;;;;;;;14.13;13.02;;;14.70;99.90;;;;;;5051209;28;20074;-79
2023/09/19 01:10:10;;;;;;;13.00;12.15;;;14.70;99.90;;;;;;4961874;28;20062;-80
2023/09/19 01:13:13;;;;;;;13.88;12.68;;;14.70;99.90;;;;;;4980851;28;20054;-81
2023/09/19 01:15:49;;;;;;;14.90;13.50;;;14.70;99.90;;;;;;4978706;28;20043;-81
2023/09/19 01:18:35;;;;;;;13.25;12.35;;;14.70;99.90;;;;;;4969458;28;20047;-81
2023/09/19 01:21:13;;;;;;;14.52;13.35;;;14.70;99.90;;;;;;4972316;28;20119;-81
2023/09/19 01:24:13;;;;;;;14.93;13.73;;;14.70;99.90;;;;;;4951239;28;20127;-81
2023/09/19 01:26:59;;;;;;;14.48;13.30;;;14.60;99.90;;;;;;5027616;28;20054;-81
2023/09/19 01:29:39;;;;;;;14.40;13.00;;;14.60;99.90;;;;;;4965097;28;20060;-80
2023/09/19 01:32:09;;;;;;;14.70;13.35;;;14.50;99.90;;;;;;4987272;28;20034;-81
2023/09/19 01:34:56;;;;;;;15.45;14.10;;;14.60;99.90;;;;;;4961236;28;20054;-81
2023/09/19 01:37:26;;;;;;;15.77;14.45;;;14.50;99.90;;;;;;4965668;28;20092;-81
2023/09/19 01:39:59;;;;;;;14.60;13.60;;;14.50;99.90;;;;;;4956624;28;20152;-81
2023/09/19 01:42:39;;;;;;;15.80;14.52;;;14.50;99.90;;;;;;4967664;28;20096;-81
2023/09/19 01:45:13;;;;;;;15.68;14.15;;;14.50;99.90;;;;;;4967207;28;20053;-81
2023/09/19 01:47:49;;;;;;;15.68;14.48;;;14.60;99.90;;;;;;5013835;28;20694;-82
2023/09/19 01:50:31;;;;;;;16.20;14.57;;;14.60;99.90;;;;;;4981613;28;20047;-81
2023/09/19 01:53:05;;;;;;;18.70;15.52;;;14.60;99.90;;;;;;5024039;28;20043;-82
2023/09/19 01:55:42;;;;;;;16.55;15.15;;;14.60;99.90;;;;;;4959524;28;20051;-81
2023/09/19 01:58:27;;;;;;;16.55;15.45;;;14.50;99.90;;;;;;4964432;28;20054;-81
2023/09/19 02:00:56;;;;;;;16.05;14.85;;;14.50;99.90;;;;;;4977960;28;20069;-80
2023/09/19 02:03:24;;;;;;;16.40;14.95;;;14.50;99.90;;;;;;4974914;28;20085;-80
2023/09/19 02:05:53;;;;;;;16.95;14.50;;;14.50;99.90;;;;;;4987295;28;20110;-81
2023/09/19 02:08:23;;;;;;;16.80;15.07;;;14.50;99.90;;;;;;4967203;28;20053;-82
2023/09/19 02:10:50;;;;;;;16.33;15.13;;;14.50;99.90;;;;;;4958516;28;20044;-82
2023/09/19 02:13:27;;;;;;;16.17;14.52;;;14.50;99.90;;;;;;4983024;28;20042;-81
2023/09/19 02:15:56;;;;;;;16.23;14.95;;;14.50;99.90;;;;;;4973434;28;20046;-82
2023/09/19 02:18:23;;;;;;;16.90;15.40;;;14.50;99.90;;;;;;4986208;28;20058;-82
2023/09/19 02:20:51;;;;;;;16.33;15.18;;;14.50;99.90;;;;;;4949848;28;20049;-82
2023/09/19 02:23:18;;;;;;;16.73;15.43;;;14.50;99.90;;;;;;4945062;28;20049;-82
2023/09/19 02:25:56;;;;;;;15.82;14.18;;;14.50;99.90;;;;;;4956873;28;20046;-83
2023/09/19 02:28:24;;;;;;;17.55;15.77;;;14.40;99.90;;;;;;4963925;28;20047;-83
2023/09/19 02:30:50;;;;;;;16.88;15.40;;;14.40;99.90;;;;;;4964764;28;20123;-81
2023/09/19 02:33:17;;;;;;;16.05;14.80;;;14.50;99.90;;;;;;4979957;28;20053;-82
2023/09/19 02:35:44;;;;;;;16.67;15.25;;;14.40;99.90;;;;;;4978019;28;20178;-83
2023/09/19 02:38:12;;;;;;;17.25;15.77;;;14.50;99.90;;;;;;4949794;28;20092;-82
2023/09/19 02:40:39;;;;;;;17.23;15.55;;;14.50;99.90;;;;;;4964991;28;20118;-84
2023/09/19 02:43:08;;;;;;;17.08;15.63;;;14.40;99.90;;;;;;4967996;28;20043;-83
2023/09/19 02:45:35;;;;;;;18.10;16.20;;;14.40;99.90;;;;;;4971392;28;20067;-83
2023/09/19 02:48:02;;;;;;;23.17;17.30;;;14.40;99.90;;;;;;4977643;28;20039;-84
2023/09/19 02:50:29;;;;;;;17.73;15.95;;;14.40;99.90;;;;;;4966338;28;20663;-83
2023/09/19 02:52:56;;;;;;;17.83;16.02;;;14.40;99.90;;;;;;4964615;28;20045;-84
2023/09/19 02:55:24;;;;;;;17.15;15.65;;;14.40;99.90;;;;;;4972140;28;20070;-83
2023/09/19 02:57:52;;;;;;;17.10;15.70;;;14.40;99.90;;;;;;4948466;28;20050;-83
2023/09/19 03:00:20;;;;;;;17.35;15.60;;;14.30;99.90;;;;;;4971511;28;20141;-83
2023/09/19 03:02:52;;;;;;;18.25;15.98;;;14.20;99.90;;;;;;4966676;28;20051;-83
2023/09/19 03:05:20;;;;;;;17.45;15.65;;;14.20;99.90;;;;;;4963644;28;20080;-83
2023/09/19 03:07:50;;;;;;;16.60;14.98;;;14.20;99.90;;;;;;4981676;28;20050;-84
2023/09/19 03:10:20;;;;;;;16.60;14.88;;;14.10;99.90;;;;;;4969629;28;20613;-83
2023/09/19 03:12:47;;;;;;;18.00;16.33;;;14.10;99.90;;;;;;4973522;28;20065;-83
2023/09/19 03:15:18;;;;;;;17.40;15.80;;;14.10;99.90;;;;;;4969085;28;20100;-84
2023/09/19 03:17:47;;;;;;;17.17;15.57;;;14.10;99.90;;;;;;4965631;28;20046;-83
2023/09/19 03:20:18;;;;;;;17.92;16.13;;;14.00;99.90;;;;;;4969960;28;20054;-82
2023/09/19 03:22:47;;;;;;;19.25;15.82;;;14.00;99.90;;;;;;4990871;28;20363;-84
2023/09/19 03:25:17;;;;;;;17.95;16.25;;;14.00;99.90;;;;;;4958859;28;20039;-84
2023/09/19 03:27:47;;;;;;;17.52;16.02;;;14.00;99.90;;;;;;4972073;28;20141;-85
2023/09/19 03:30:14;;;;;;;17.25;15.20;;;14.10;99.90;;;;;;4974915;28;20043;-84
2023/09/19 03:32:49;;;;;;;17.13;15.50;;;14.00;99.90;;;;;;4979231;28;20109;-84
2023/09/19 03:35:18;;;;;;;19.17;17.08;;;14.00;99.90;;;;;;4967438;28;20057;-85
2023/09/19 03:37:46;;;;;;;18.02;16.42;;;14.00;99.90;;;;;;4975852;28;20047;-84
2023/09/19 03:40:15;;;;;;;18.95;16.92;;;14.00;99.90;;;;;;4975351;28;20050;-84
2023/09/19 03:42:43;;;;;;;23.05;17.33;;;14.00;99.90;;;;;;4971085;28;20088;-82
2023/09/19 03:45:12;;;;;;;18.88;16.95;;;14.00;99.90;;;;;;4968011;28;20038;-85
2023/09/19 03:47:47;;;;;;;18.75;17.10;;;13.90;99.90;;;;;;4984336;28;20050;-84
2023/09/19 03:50:17;;;;;;;20.80;16.75;;;13.90;99.90;;;;;;4989443;28;20413;-83
2023/09/19 03:52:45;;;;;;;23.05;18.58;;;13.90;99.90;;;;;;4977873;28;20048;-84
2023/09/19 03:55:12;;;;;;;23.80;17.90;;;13.80;99.90;;;;;;4973217;28;20042;-83
2023/09/19 03:57:40;;;;;;;18.63;16.73;;;13.70;99.90;;;;;;4969793;28;20171;-85
2023/09/19 04:00:11;;;;;;;19.00;17.33;;;13.70;99.90;;;;;;4965501;28;20078;-85
2023/09/19 04:02:39;;;;;;;18.92;17.10;;;13.60;99.90;;;;;;4965192;28;20063;-84
2023/09/19 04:05:07;;;;;;;18.67;16.85;;;13.60;99.90;;;;;;5003948;28;20133;-85
2023/09/19 04:07:34;;;;;;;19.35;16.80;;;13.60;99.90;;;;;;4992718;28;20129;-83
2023/09/19 04:10:02;;;;;;;23.10;17.17;;;13.60;99.90;;;;;;4954045;28;20074;-85
2023/09/19 04:12:29;;;;;;;20.55;18.48;;;13.50;99.90;;;;;;4965300;28;20090;-85
2023/09/19 04:14:56;;;;;;;21.88;18.08;;;13.50;99.90;;;;;;4976488;28;20046;-84
2023/09/19 04:17:25;;;;;;;19.40;17.27;;;13.40;99.90;;;;;;4951141;28;20055;-84
2023/09/19 04:19:53;;;;;;;20.17;18.48;;;13.50;99.90;;;;;;4968465;28;20599;-85
2023/09/19 04:22:20;;;;;;;19.63;17.95;;;13.40;99.90;;;;;;4986376;28;20066;-85
2023/09/19 04:24:47;;;;;;;18.55;16.63;;;13.40;99.90;;;;;;4974910;28;20646;-85
2023/09/19 04:27:14;;;;;;;19.10;17.40;;;13.50;99.90;;;;;;4974257;28;20483;-84
2023/09/19 04:29:41;;;;;;;19.20;17.40;;;13.40;99.90;;;;;;4962804;28;20043;-83
2023/09/19 04:32:09;;;;;;;19.52;17.27;;;13.40;99.90;;;;;;4962576;28;20039;-84
2023/09/19 04:34:38;;;;;;;18.95;17.17;;;13.40;99.90;;;;;;4979347;28;20099;-85
2023/09/19 04:37:05;;;;;;;18.95;16.95;;;13.40;99.90;;;;;;4973134;28;20048;-83
2023/09/19 04:39:33;;;;;;;25.77;18.42;;;13.40;99.90;;;;;;4961527;28;20105;-84
2023/09/19 04:42:00;;;;;;;28.33;19.20;;;13.40;99.90;;;;;;4982784;28;20108;-84
2023/09/19 04:44:28;;;;;;;21.30;16.92;;;13.40;99.90;;;;;;4960687;28;20058;-83
2023/09/19 04:46:54;;;;;;;23.60;16.52;;;13.40;99.90;;;;;;4975682;28;20108;-84
2023/09/19 04:49:21;;;;;;;18.45;16.90;;;13.30;99.90;;;;;;4980727;28;20046;-84
2023/09/19 04:51:48;;;;;;;21.52;16.90;;;13.30;99.90;;;;;;4973998;28;20137;-86
2023/09/19 04:54:15;;;;;;;19.95;17.88;;;13.30;99.90;;;;;;4970337;28;20155;-84
2023/09/19 04:56:42;;;;;;;26.75;17.15;;;13.20;99.90;;;;;;4970901;28;22282;-84
2023/09/19 04:59:10;;;;;;;24.83;18.30;;;13.20;99.90;;;;;;4975788;28;20069;-86
2023/09/19 05:01:37;;;;;;;20.30;18.30;;;13.20;99.90;;;;;;4971643;28;20054;-82
2023/09/19 05:04:05;;;;;;;19.40;17.42;;;13.20;99.90;;;;;;4969888;28;20042;-84
2023/09/19 05:06:33;;;;;;;18.05;16.52;;;13.10;99.90;;;;;;5031946;28;20047;-86
2023/09/19 05:09:00;;;;;;;18.98;17.25;;;13.10;99.90;;;;;;4953547;28;20050;-84
2023/09/19 05:11:30;;;;;;;19.63;17.85;;;13.10;99.90;;;;;;5032819;28;20057;-86
2023/09/19 05:13:57;;;;;;;20.42;17.15;;;13.10;99.90;;;;;;4980313;28;20518;-86
2023/09/19 05:16:24;;;;;;;22.52;17.10;;;13.00;99.90;;;;;;5041498;28;20047;-85
2023/09/19 05:18:52;;;;;;;18.88;16.95;;;13.00;99.90;;;;;;4996428;28;20146;-85
2023/09/19 05:21:18;;;;;;;18.42;16.80;;;13.00;99.90;;;;;;4968981;28;20050;-85
2023/09/19 05:23:45;;;;;;;19.45;17.55;;;13.00;99.90;;;;;;4967275;28;20054;-84
2023/09/19 05:26:15;;;;;;;22.70;18.77;;;13.00;99.90;;;;;;4976050;28;20078;-84
2023/09/19 05:28:43;;;;;;;22.33;18.33;;;13.00;99.90;;;;;;4971055;28;20722;-86
2023/09/19 05:31:10;;;;;;;20.60;18.45;;;13.00;99.90;;;;;;4952123;28;20138;-85
2023/09/19 05:33:36;;;;;;;21.48;19.02;;;12.90;99.90;;;;;;5024715;28;20038;-85
2023/09/19 05:36:04;;;;;;;23.23;18.75;;;12.90;99.90;;;;;;4959761;28;20180;-84
2023/09/19 05:38:32;;;;;;;20.48;18.40;;;12.90;99.90;;;;;;4970023;28;20055;-85
2023/09/19 05:40:59;;;;;;;24.92;19.08;;;12.90;99.90;;;;;;4976418;28;20042;-83
2023/09/19 05:43:26;;;;;;;20.52;18.48;;;12.80;99.90;;;;;;4960447;28;20704;-84
2023/09/19 05:45:56;;;;;;;24.80;18.52;;;12.90;99.90;;;;;;4953097;28;20057;-84
2023/09/19 05:48:23;;;;;;;20.77;18.60;;;12.90;99.90;;;;;;4982053;28;20065;-85
2023/09/19 05:50:49;;;;;;;21.15;18.95;;;12.90;99.90;;;;;;4963468;28;20100;-83
2023/09/19 05:53:18;;;;;;;20.50;18.48;;;12.80;99.90;;;;;;4979073;28;20052;-85
2023/09/19 05:55:45;;;;;;;27.25;19.50;;;12.90;99.90;;;;;;4961648;28;20138;-85
2023/09/19 05:58:17;;;;;;;20.85;18.80;;;12.90;99.90;;;;;;4951835;28;20116;-85
2023/09/19 06:00:47;;;;;;;23.02;18.90;;;12.90;99.90;;;;;;4948045;28;20360;-84
2023/09/19 06:03:14;;;;;;;21.38;18.80;;;12.90;99.90;;;;;;4972511;28;20130;-85
2023/09/19 06:05:41;;;;;;;23.65;19.42;;;12.90;99.90;;;;;;4966256;28;20047;-83
2023/09/19 06:08:09;;;;;;;19.83;17.83;;;12.90;99.90;;;;;;4966745;28;20129;-84
2023/09/19 06:10:36;;;;;;;26.73;19.70;;;12.90;99.90;;;;;;4981079;28;20042;-83
2023/09/19 06:13:09;;;;;;;20.10;18.25;;;12.90;99.90;;;;;;4954468;28;20476;-80
2023/09/19 06:15:36;;;;;;;21.50;19.33;;;12.90;99.90;;;;;;4947512;28;20053;-81
2023/09/19 06:18:04;;;;;;;23.95;19.27;;;13.00;99.90;;;;;;4960611;28;20505;-83
2023/09/19 06:20:33;;;;;;;25.73;19.05;;;13.00;99.90;;;;;;4957692;28;20476;-83
2023/09/19 06:23:01;;;;;;;23.00;18.88;;;13.00;99.90;;;;;;4976195;28;20074;-83
2023/09/19 06:25:28;;;;;;;21.65;19.17;;;12.90;99.90;;;;;;4945293;28;20540;-81
2023/09/19 06:27:55;;;;;;;21.33;18.85;;;13.00;99.90;;;;;;4965620;28;20085;-81
2023/09/19 06:30:26;;;;;;;21.45;19.20;;;13.00;99.90;;;;;;4958444;28;20108;-83
2023/09/19 06:33:00;;;;;;;20.75;18.83;;;13.00;99.90;;;;;;4974584;28;20302;-82
2023/09/19 06:35:32;;;;;;;23.00;20.00;;;13.00;99.90;;;;;;4990200;28;20115;-83
2023/09/19 06:38:02;;;;;;;21.48;19.42;;;13.00;99.90;;;;;;5027526;28;21188;-84
2023/09/19 06:40:30;;;;;;;23.70;19.75;;;13.00;99.90;;;;;;4960525;28;20048;-82
2023/09/19 06:42:57;;;;;;;22.45;20.30;;;13.10;99.90;;;;;;4972965;28;20038;-84
2023/09/19 06:45:26;;;;;;;21.73;19.48;;;13.20;99.90;;;;;;4980730;28;20039;-82
2023/09/19 06:47:57;;;;;;;26.05;19.90;;;13.20;99.90;;;;;;4989195;28;20075;-83
2023/09/19 06:50:26;;;;;;;21.20;19.00;;;13.30;99.90;;;;;;4987201;28;26358;-83
2023/09/19 06:52:55;;;;;;;20.90;18.88;;;13.30;99.90;;;;;;4970133;28;20124;-84
2023/09/19 06:55:27;;;;;;;22.13;19.85;;;13.30;99.90;;;;;;4992872;28;20073;-83
2023/09/19 06:57:54;;;;;;;22.60;20.38;;;13.40;99.90;;;;;;4975905;28;20076;-80
2023/09/19 07:00:25;;;;;;;22.00;19.75;;;13.40;99.90;;;;;;4969090;28;20050;-80
2023/09/19 07:03:00;;;;;;;24.90;19.70;;;13.50;99.90;;;;;;4966721;28;20720;-80
2023/09/19 07:05:27;;;;;;;130.02;32.35;;;13.50;99.90;;;;;;4993665;28;20470;-80
2023/09/19 07:07:55;;;;;;;28.00;19.92;;;13.60;99.90;;;;;;4962482;28;20042;-81
2023/09/19 07:10:23;;;;;;;26.52;19.88;;;13.60;99.90;;;;;;4986097;28;20050;-79
2023/09/19 07:13:01;;;;;;;33.30;20.83;;;13.60;99.90;;;;;;4977786;28;20076;-80
2023/09/19 07:15:33;;;;;;;21.90;19.77;;;13.70;99.90;;;;;;4970655;28;20046;-77
2023/09/19 07:18:00;;;;;;;26.48;19.80;;;13.70;99.90;;;;;;4975046;28;20057;-76
2023/09/19 07:20:31;;;;;;;38.15;20.30;;;13.80;99.90;;;;;;4972245;28;20846;-76
2023/09/19 07:23:01;;;;;;;22.35;18.70;;;13.80;99.90;;;;;;4974107;28;20042;-76
2023/09/19 07:25:29;;;;;;;24.25;19.90;;;13.90;99.90;;;;;;4963053;28;20050;-77
2023/09/19 07:27:59;;;;;;;21.90;19.70;;;13.90;99.90;;;;;;4963003;28;20042;-76
2023/09/19 07:30:28;;;;;;;22.65;20.27;;;13.90;99.90;;;;;;4970240;28;20059;-76
2023/09/19 07:32:54;;;;;;;22.02;19.77;;;13.90;99.90;;;;;;4952153;28;20390;-78
2023/09/19 07:35:21;;;;;;;28.70;20.52;;;13.90;99.90;;;;;;4993065;28;20066;-77
2023/09/19 07:37:49;;;;;;;20.98;18.80;;;14.00;99.90;;;;;;4978859;28;20046;-78
2023/09/19 07:40:18;;;;;;;21.23;19.17;;;14.10;99.90;;;;;;4977627;28;20539;-79
2023/09/19 07:42:46;;;;;;;21.25;19.42;;;14.10;99.90;;;;;;5031000;28;20074;-79
2023/09/19 07:45:14;;;;;;;21.35;19.48;;;14.10;99.90;;;;;;4976644;28;20156;-78
2023/09/19 07:47:45;;;;;;;21.02;19.05;;;14.20;99.90;;;;;;4962337;28;20297;-77
2023/09/19 07:50:13;;;;;;;22.75;20.50;;;14.30;99.90;;;;;;4981493;28;20043;-78
2023/09/19 07:52:40;;;;;;;21.75;19.65;;;14.20;99.90;;;;;;4960252;28;20145;-79
2023/09/19 07:55:11;;;;;;;21.42;19.30;;;14.30;99.90;;;;;;4968667;28;20101;-77
2023/09/19 07:57:38;;;;;;;22.27;18.83;;;14.30;99.90;;;;;;4978855;28;20055;-79
2023/09/19 08:00:06;;;;;;;21.50;19.40;;;14.40;99.90;;;;;;4994084;28;20057;-78
2023/09/19 08:02:38;;;;;;;21.55;19.27;;;14.30;99.90;;;;;;4975226;28;20556;-77
2023/09/19 08:05:10;;;;;;;20.95;19.02;;;14.40;99.90;;;;;;5044226;28;20114;-78
2023/09/19 08:07:38;;;;;;;22.65;20.20;;;14.50;99.90;;;;;;4978094;28;20054;-77
2023/09/19 08:10:13;;;;;;;22.65;20.00;;;14.60;99.90;;;;;;4977131;28;20042;-77
2023/09/19 08:12:46;;;;;;;21.50;19.52;;;14.70;99.90;;;;;;4982813;28;20046;-80
2023/09/19 08:15:14;;;;;;;21.80;19.45;;;14.80;99.90;;;;;;4982037;28;20076;-79
2023/09/19 08:17:41;;;;;;;23.30;19.25;;;14.80;99.90;;;;;;5007762;28;20042;-82
2023/09/19 08:20:17;;;;;;;21.60;19.55;;;14.80;99.90;;;;;;4985511;28;20052;-80
2023/09/19 08:22:55;;;;;;;21.48;19.40;;;14.90;99.90;;;;;;4995952;28;20042;-77
2023/09/19 08:25:25;;;;;;;22.15;19.98;;;15.00;99.90;;;;;;4999977;28;20026;-80
2023/09/19 08:27:52;;;;;;;21.52;19.27;;;15.10;99.90;;;;;;4987417;28;20066;-82
2023/09/19 08:30:23;;;;;;;21.63;19.77;;;15.10;99.90;;;;;;4990320;28;20038;-81
2023/09/19 08:32:58;;;;;;;22.98;20.52;;;15.10;99.90;;;;;;4963927;28;20067;-78
2023/09/19 08:35:25;;;;;;;22.67;20.45;;;15.10;99.90;;;;;;5000226;28;20050;-79
2023/09/19 08:37:53;;;;;;;23.02;20.52;;;15.10;99.90;;;;;;4969720;28;20054;-79
2023/09/19 08:40:19;;;;;;;21.65;19.55;;;15.10;99.90;;;;;;4986945;28;20677;-78
2023/09/19 08:42:54;;;;;;;22.58;19.88;;;15.00;99.90;;;;;;4973471;28;20124;-81
2023/09/19 08:45:27;;;;;;;;;;;15.00;99.90;;;;;;4970938;28;20043;-78
2023/09/19 08:48:23;;;;;;;21.75;19.77;;;15.10;99.90;;;;;;4994181;28;20309;-78
2023/09/19 08:51:18;;;;;;;26.15;21.60;;;15.20;99.90;;;;;;4976232;28;20073;-79
2023/09/19 08:53:51;;;;;;;23.30;20.97;;;15.30;99.90;;;;;;4973438;28;20626;-79
2023/09/19 08:56:19;;;;;;;28.15;22.27;;;15.40;99.90;;;;;;4972180;28;20039;-78
2023/09/19 08:58:54;;;;;;;24.80;21.48;;;15.50;99.90;;;;;;4987296;28;20298;-79
2023/09/19 09:01:27;;;;;;;22.83;20.55;;;15.70;99.90;;;;;;4968341;28;20050;-80
2023/09/19 09:03:55;;;;;;;24.58;20.25;;;15.70;99.90;;;;;;4983757;28;20039;-79
2023/09/19 09:06:23;;;;;;;30.60;20.95;;;15.90;99.90;;;;;;4986271;28;20122;-78
2023/09/19 09:08:52;;;;;;;25.20;21.83;;;16.00;99.90;;;;;;4968567;28;20129;-78
2023/09/19 09:11:19;;;;;;;27.30;21.38;;;15.90;99.90;;;;;;4989366;28;20149;-78
2023/09/19 09:13:47;;;;;;;22.63;20.70;;;15.80;99.90;;;;;;4977435;28;20058;-80
2023/09/19 09:16:18;;;;;;;23.58;21.25;;;15.60;99.90;;;;;;4991758;28;20053;-79
2023/09/19 09:18:52;;;;;;;25.60;21.85;;;15.60;99.90;;;;;;4980066;28;20060;-80
2023/09/19 09:21:21;;;;;;;29.92;21.10;;;15.60;99.90;;;;;;4977887;28;20054;-77
2023/09/19 09:23:51;;;;;;;27.13;22.65;;;15.60;99.90;;;;;;4990410;28;20140;-78
2023/09/19 09:26:42;;;;;;;29.17;21.75;;;15.60;99.90;;;;;;4981676;28;20692;-78
2023/09/19 09:29:10;;;;;;;23.52;21.35;;;15.70;99.90;;;;;;4963900;28;20070;-81
2023/09/19 09:31:37;;;;;;;24.70;22.17;;;15.80;99.90;;;;;;4962900;28;20046;-79
2023/09/19 09:34:05;;;;;;;23.88;21.80;;;15.80;99.90;;;;;;4977336;28;20844;-79
2023/09/19 09:36:37;;;;;;;25.33;22.58;;;15.90;99.90;;;;;;4967245;28;20046;-80
2023/09/19 09:39:24;;;;;;;25.05;20.85;;;15.90;99.90;;;;;;4984116;28;20065;-79
2023/09/19 09:41:51;;;;;;;23.27;20.85;;;15.90;99.90;;;;;;4970574;28;20049;-79
2023/09/19 09:44:19;;;;;;;24.48;22.10;;;16.00;99.90;;;;;;4977770;28;20114;-79
2023/09/19 09:49:32;;;;;;;24.90;22.60;;;16.20;99.90;;;;;;4978763;28;20073;-78
2023/09/19 09:52:16;;;;;;;24.92;22.52;;;16.30;99.90;;;;;;4973776;28;20521;-78
2023/09/19 09:55:05;;;;;;;30.02;22.65;;;16.40;99.90;;;;;;4998928;28;20037;-79
2023/09/19 09:57:33;;;;;;;27.67;22.35;;;16.40;99.90;;;;;;4985568;28;20042;-79
2023/09/19 10:02:41;;;;;;;25.42;22.17;;;16.60;99.90;;;;;;4988550;28;20046;-78
2023/09/19 10:08:00;;;;;;;22.25;20.40;;;16.80;99.90;;;;;;4979621;28;20050;-79
2023/09/19 10:13:21;;;;;;;27.98;22.30;;;16.60;99.90;;;;;;4980352;28;20048;-78
2023/09/19 10:15:54;;;;;;;22.80;21.13;;;16.60;99.90;;;;;;5047326;28;20058;-75
2023/09/19 10:18:27;;;;;;;99.85;26.40;;;16.90;99.90;;;;;;5046887;28;20046;-77
2023/09/19 10:20:56;;;;;;;23.38;21.10;;;16.90;99.90;;;;;;4959835;28;20116;-78
2023/09/19 10:23:29;;;;;;;23.42;21.23;;;16.80;99.90;;;;;;4977995;28;20035;-78
2023/09/19 10:25:57;;;;;;;22.15;20.35;;;16.80;99.90;;;;;;4961156;28;20038;-77
2023/09/19 10:28:28;;;;;;;25.92;20.70;;;16.70;99.90;;;;;;4979622;28;20046;-79
2023/09/19 10:30:57;;;;;;;23.88;21.50;;;16.60;99.90;;;;;;4961629;28;20038;-78
2023/09/19 10:33:29;;;;;;;23.75;21.45;;;16.60;99.90;;;;;;4965410;28;20428;-77
2023/09/19 10:35:59;;;;;;;23.95;21.83;;;16.60;99.90;;;;;;4962909;28;20077;-78
2023/09/19 10:38:28;;;;;;;23.85;21.95;;;16.70;99.90;;;;;;4974620;28;20610;-78
2023/09/19 10:41:00;;;;;;;24.77;22.52;;;16.70;99.90;;;;;;4980316;28;20042;-79
2023/09/19 10:43:32;;;;;;;28.60;22.23;;;16.90;99.90;;;;;;4974651;28;20480;-76
2023/09/19 10:46:07;;;;;;;24.83;22.65;;;16.80;99.90;;;;;;4954110;28;20039;-76
2023/09/19 10:48:34;;;;;;;24.33;22.13;;;16.90;99.90;;;;;;4964622;28;20046;-77
2023/09/19 10:51:09;;;;;;;24.13;22.13;;;17.00;99.90;;;;;;4968786;28;20026;-77
2023/09/19 10:53:51;;;;;;;25.33;22.95;;;17.00;99.90;;;;;;4955519;28;20065;-77
2023/09/19 10:56:30;;;;;;;26.42;24.25;;;17.10;99.90;;;;;;4959226;28;20583;-76
2023/09/19 10:59:09;;;;;;;26.35;24.15;;;17.10;99.90;;;;;;4952131;28;20050;-77
2023/09/19 11:01:47;;;;;;;26.02;23.85;;;17.20;99.90;;;;;;4956328;28;20470;-76
2023/09/19 11:04:33;;;;;;;26.25;23.90;;;17.20;99.90;;;;;;4969967;28;20074;-76
2023/09/19 11:07:10;;;;;;;25.40;23.58;;;17.30;99.90;;;;;;4959658;28;20142;-78
2023/09/19 11:09:58;;;;;;;27.13;24.63;;;17.40;99.90;;;;;;4976035;28;20582;-78
2023/09/19 11:12:31;;;;;;;27.80;25.00;;;17.60;99.90;;;;;;4969268;28;20043;-79
2023/09/19 11:14:59;;;;;;;25.45;23.60;;;17.80;99.90;;;;;;4971123;28;20060;-79
2023/09/19 11:17:33;;;;;;;26.08;23.80;;;18.00;99.90;;;;;;4963103;28;20046;-77
2023/09/19 11:20:23;;;;;;;27.63;25.27;;;18.10;99.90;;;;;;4964386;28;20163;-78
2023/09/19 11:22:58;;;;;;;26.17;24.20;;;18.10;99.90;;;;;;4974577;28;20570;-79
2023/09/19 11:25:38;;;;;;;27.23;24.85;;;18.10;99.90;;;;;;4973417;28;20070;-79
2023/09/19 11:28:05;;;;;;;27.40;24.73;;;17.90;99.90;;;;;;4982392;28;20047;-76
2023/09/19 11:30:40;;;;;;;25.23;23.02;;;18.00;99.90;;;;;;4968124;28;20033;-78
2023/09/19 11:33:22;;;;;;;25.55;23.17;;;17.90;99.90;;;;;;4964788;28;20118;-77
2023/09/19 11:36:00;;;;;;;24.83;22.88;;;17.90;99.90;;;;;;4959422;28;20096;-78
2023/09/19 11:38:42;;;;;;;24.67;20.95;;;17.90;99.90;;;;;;4953023;28;20054;-78
2023/09/19 11:41:25;;;;;;;25.15;22.70;;;18.00;99.90;;;;;;4981822;28;20045;-79
2023/09/19 11:44:13;;;;;;;25.23;23.08;;;17.70;99.90;;;;;;4987064;28;20043;-77
2023/09/19 11:46:53;;;;;;;26.15;23.58;;;17.70;99.90;;;;;;4974093;28;20038;-79
2023/09/19 11:49:33;;;;;;;25.80;23.60;;;17.90;99.90;;;;;;4976523;28;20050;-80
2023/09/19 11:52:04;;;;;;;25.55;23.33;;;18.30;99.90;;;;;;4978431;28;20050;-79
2023/09/19 11:54:32;;;;;;;24.65;22.50;;;18.30;99.90;;;;;;4967283;28;20046;-78
2023/09/19 11:57:00;;;;;;;25.25;22.75;;;18.30;99.90;;;;;;4984966;28;20061;-78
2023/09/19 11:59:29;;;;;;;24.88;22.58;;;18.10;99.90;;;;;;4959344;28;20042;-78
2023/09/19 12:02:05;;;;;;;26.73;23.85;;;18.00;99.90;;;;;;4968734;28;20050;-78
2023/09/19 12:04:41;;;;;;;24.60;22.38;;;17.80;99.90;;;;;;5030300;28;20053;-78
2023/09/19 12:07:16;;;;;;;31.60;24.98;;;18.10;99.90;;;;;;4958216;28;20054;-78
2023/09/19 12:09:47;;;;;;;26.25;23.73;;;18.10;99.90;;;;;;4964706;28;20061;-78
2023/09/19 12:12:32;;;;;;;24.13;21.95;;;18.30;99.90;;;;;;4982642;28;20041;-79
2023/09/19 12:14:59;;;;;;;25.42;23.25;;;17.90;99.90;;;;;;4976758;28;20116;-78
2023/09/19 12:17:43;;;;;;;24.85;22.52;;;18.00;99.90;;;;;;4980729;28;20649;-77
2023/09/19 12:20:12;;;;;;;26.83;23.33;;;18.10;99.90;;;;;;4960627;28;20042;-78
2023/09/19 12:22:47;;;;;;;25.08;22.98;;;17.80;99.90;;;;;;4975994;28;20058;-78
2023/09/19 12:25:16;;;;;;;26.63;23.98;;;18.00;99.90;;;;;;4974016;28;20462;-78
2023/09/19 12:27:49;;;;;;;24.33;22.23;;;18.00;99.90;;;;;;4980751;28;20055;-79
2023/09/19 12:30:20;;;;;;;25.02;22.48;;;18.20;99.90;;;;;;4957087;28;20054;-78
2023/09/19 12:32:55;;;;;;;25.25;22.77;;;18.30;99.90;;;;;;4962389;28;20656;-78
2023/09/19 12:35:39;;;;;;;25.65;23.15;;;18.40;99.90;;;;;;4958357;28;20068;-78
2023/09/19 12:38:07;;;;;;;25.95;23.80;;;18.30;99.90;;;;;;4955187;28;20043;-80
2023/09/19 12:40:37;;;;;;;26.77;24.60;;;18.60;99.90;;;;;;4947949;28;20040;-77
2023/09/19 12:43:07;;;;;;;26.77;24.42;;;18.70;99.90;;;;;;4962551;28;20050;-77
2023/09/19 12:45:37;;;;;;;25.25;22.88;;;19.00;99.90;;;;;;4965507;28;20073;-77
2023/09/19 12:48:31;;;;;;;24.80;22.88;;;18.90;99.90;;;;;;4943971;28;20043;-78
2023/09/19 12:51:05;;;;;;;24.60;22.60;;;18.60;99.90;;;;;;4969507;28;20069;-78
2023/09/19 12:53:42;;;;;;;25.25;23.08;;;18.60;99.90;;;;;;4956677;28;20435;-78
2023/09/19 12:56:13;;;;;;;25.05;23.05;;;18.90;99.90;;;;;;4976248;28;20050;-77
2023/09/19 12:59:03;;;;;;;25.83;23.73;;;19.00;99.90;;;;;;4947870;28;20055;-78